Time;durP1;ratioP1;P1;durP2;ratioP2;P2;SDS_P1;SDS_P2;PMS_P1;PMS_P2;Temp;Humidity;BMP_temperature;BMP_pressure;BME280_temperature;BME280_humidity;BME280_pressure;Samples;Min_cycle;Max_cycle;Signal;HPM_P1;HPM_P2
2023/03/21 00:00:25;;;;;;;23.67;16.37;;;10.80;99.90;;;;;;4974909;28;20102;-79
2023/03/21 00:02:51;;;;;;;28.88;18.17;;;10.70;99.90;;;;;;4957033;28;20038;-80
2023/03/21 00:05:17;;;;;;;29.37;18.87;;;10.70;99.90;;;;;;4957367;28;20037;-79
2023/03/21 00:07:43;;;;;;;28.50;18.17;;;10.70;99.90;;;;;;4974853;28;20107;-81
2023/03/21 00:10:09;;;;;;;32.80;19.97;;;10.80;99.90;;;;;;4974975;28;20466;-81
2023/03/21 00:12:36;;;;;;;29.40;19.33;;;10.70;99.90;;;;;;4957225;28;20027;-81
2023/03/21 00:15:06;;;;;;;30.00;19.80;;;10.70;99.90;;;;;;4974510;28;20027;-81
2023/03/21 00:17:32;;;;;;;30.63;20.53;;;10.70;99.90;;;;;;4956975;28;20403;-83
2023/03/21 00:19:59;;;;;;;34.93;22.43;;;10.70;99.90;;;;;;4974359;28;20151;-83
2023/03/21 00:22:26;;;;;;;28.07;20.23;;;10.70;99.90;;;;;;4973043;28;20034;-83
2023/03/21 00:24:52;;;;;;;29.17;19.63;;;10.60;99.90;;;;;;4956965;28;20031;-82
2023/03/21 00:27:21;;;;;;;32.63;20.47;;;10.60;99.90;;;;;;4973956;28;20034;-82
2023/03/21 00:29:50;;;;;;;31.53;17.90;;;10.60;99.90;;;;;;4956827;28;20165;-82
2023/03/21 00:32:17;;;;;;;39.67;22.53;;;10.60;99.90;;;;;;4956764;28;20132;-83
2023/03/21 00:34:43;;;;;;;33.80;20.60;;;10.50;99.90;;;;;;4956971;28;20031;-82
2023/03/21 00:37:10;;;;;;;29.17;19.73;;;10.50;99.90;;;;;;4956916;28;20467;-83
2023/03/21 00:39:36;;;;;;;29.53;19.30;;;10.50;99.90;;;;;;4956707;28;20042;-82
2023/03/21 00:42:02;;;;;;;30.90;19.60;;;10.50;99.90;;;;;;4972763;28;20031;-83
2023/03/21 00:44:28;;;;;;;33.30;19.60;;;10.50;99.90;;;;;;4974571;28;20071;-81
2023/03/21 00:46:54;;;;;;;26.10;18.33;;;10.50;99.90;;;;;;4956898;28;20023;-83
2023/03/21 00:49:20;;;;;;;26.17;18.23;;;10.50;99.90;;;;;;4956787;28;20078;-83
2023/03/21 00:51:50;;;;;;;31.17;20.27;;;10.50;99.90;;;;;;4956657;28;20114;-83
2023/03/21 00:54:16;;;;;;;29.40;19.43;;;10.50;99.90;;;;;;4974313;28;20027;-83
2023/03/21 00:56:42;;;;;;;26.30;18.73;;;10.50;99.90;;;;;;4956751;28;20372;-83
2023/03/21 00:59:07;;;;;;;32.87;19.37;;;10.50;99.90;;;;;;4989344;28;20130;-82
2023/03/21 01:01:33;;;;;;;27.97;18.40;;;10.50;99.90;;;;;;4956414;28;20027;-83
2023/03/21 01:04:06;;;;;;;27.17;19.37;;;10.50;99.90;;;;;;4973185;28;20121;-81
2023/03/21 01:06:39;;;;;;;29.70;19.40;;;10.50;99.90;;;;;;4956827;28;20118;-83
2023/03/21 01:09:07;;;;;;;28.70;19.53;;;10.50;99.90;;;;;;4988709;28;20035;-82
2023/03/21 01:11:33;;;;;;;26.37;18.00;;;10.50;99.90;;;;;;4956819;28;20019;-83
2023/03/21 01:13:59;;;;;;;29.33;19.97;;;10.50;99.90;;;;;;4956322;28;20126;-83
2023/03/21 01:16:26;;;;;;;30.83;20.50;;;10.50;99.90;;;;;;4956595;28;20117;-82
2023/03/21 01:18:52;;;;;;;27.27;19.30;;;10.50;99.90;;;;;;4956428;28;20121;-82
2023/03/21 01:21:18;;;;;;;27.47;18.93;;;10.50;99.90;;;;;;4956324;28;20081;-82
2023/03/21 01:23:45;;;;;;;33.23;20.10;;;10.50;99.90;;;;;;4973655;28;20085;-82
2023/03/21 01:26:12;;;;;;;26.00;18.10;;;10.40;99.90;;;;;;4956690;28;20490;-82
2023/03/21 01:28:40;;;;;;;24.33;17.13;;;10.40;99.90;;;;;;4988620;28;20042;-81
2023/03/21 01:31:05;;;;;;;32.10;20.60;;;10.50;99.90;;;;;;4956038;28;20472;-82
2023/03/21 01:33:32;;;;;;;26.23;18.73;;;10.40;99.90;;;;;;4972738;28;20113;-82
2023/03/21 01:35:58;;;;;;;26.07;18.37;;;10.50;99.90;;;;;;4956255;28;20022;-80
2023/03/21 01:38:24;;;;;;;28.63;17.70;;;10.40;99.90;;;;;;4972700;28;20459;-82
2023/03/21 01:40:50;;;;;;;27.43;17.00;;;10.40;99.90;;;;;;4958026;28;20122;-82
2023/03/21 01:43:30;;;;;;;28.60;19.50;;;10.40;99.90;;;;;;4975760;28;20113;-83
2023/03/21 01:46:07;;;;;;;24.13;17.97;;;10.40;99.90;;;;;;4977085;28;20030;-82
2023/03/21 01:48:35;;;;;;;30.37;18.63;;;10.40;99.90;;;;;;4959163;28;20051;-83
2023/03/21 01:51:02;;;;;;;27.93;18.70;;;10.40;99.90;;;;;;4976067;28;20497;-81
2023/03/21 01:53:32;;;;;;;28.50;17.50;;;10.40;99.90;;;;;;4959273;28;20124;-82
2023/03/21 01:56:07;;;;;;;24.33;15.87;;;10.40;99.90;;;;;;4959446;28;20031;-82
2023/03/21 01:58:34;;;;;;;26.83;16.40;;;10.40;99.90;;;;;;4976804;28;20033;-82
2023/03/21 02:01:01;;;;;;;28.83;17.77;;;10.40;99.90;;;;;;4959206;28;20034;-81
2023/03/21 02:03:36;;;;;;;25.53;17.17;;;10.30;99.90;;;;;;4959736;28;20126;-81
2023/03/21 02:06:07;;;;;;;24.50;16.13;;;10.30;99.90;;;;;;4975764;28;20122;-82
2023/03/21 02:08:33;;;;;;;27.70;17.30;;;10.30;99.90;;;;;;4976576;28;20043;-82
2023/03/21 02:10:58;;;;;;;23.00;15.37;;;10.40;99.90;;;;;;4976427;28;20038;-81
2023/03/21 02:13:24;;;;;;;28.67;17.37;;;10.30;99.90;;;;;;4976451;28;20031;-82
2023/03/21 02:16:07;;;;;;;27.93;16.77;;;10.40;99.90;;;;;;4958762;28;20042;-81
2023/03/21 02:18:41;;;;;;;27.87;18.47;;;10.40;99.90;;;;;;4976394;28;20113;-81
2023/03/21 02:21:13;;;;;;;29.23;18.30;;;10.40;99.90;;;;;;4976611;28;20038;-82
2023/03/21 02:24:35;;;;;;;31.83;17.87;;;10.30;99.90;;;;;;4976728;28;20030;-82
2023/03/21 02:27:01;;;;;;;31.63;18.70;;;10.40;99.90;;;;;;4927885;28;20035;-82
2023/03/21 02:29:55;;;;;;;28.60;19.70;;;10.40;99.90;;;;;;4958811;28;20045;-82
2023/03/21 02:32:58;;;;;;;30.67;19.08;;;10.40;99.90;;;;;;4974373;28;20081;-82
2023/03/21 02:36:03;;;;;;;34.27;19.90;;;10.30;99.90;;;;;;4959216;28;20384;-81
2023/03/21 02:38:41;;;;;;;33.43;19.87;;;10.30;99.90;;;;;;4958821;28;20019;-82
2023/03/21 02:41:16;;;;;;;27.03;18.90;;;10.40;99.90;;;;;;4958646;28;20085;-82
2023/03/21 02:43:46;;;;;;;31.37;17.73;;;10.30;99.90;;;;;;4991225;28;20061;-83
2023/03/21 02:46:17;;;;;;;31.87;19.93;;;10.30;99.90;;;;;;4974865;28;20030;-81
2023/03/21 02:49:07;;;;;;;35.50;21.37;;;10.30;99.90;;;;;;4976322;28;20051;-82
2023/03/21 02:51:36;;;;;;;29.43;18.50;;;10.30;99.90;;;;;;4958375;28;20483;-82
2023/03/21 02:54:13;;;;;;;28.20;19.87;;;10.30;99.90;;;;;;4958344;28;20022;-82
2023/03/21 02:56:40;;;;;;;29.83;18.43;;;10.30;99.90;;;;;;4958998;28;20033;-82
2023/03/21 02:59:07;;;;;;;27.13;19.47;;;10.30;99.90;;;;;;4958429;28;20213;-83
2023/03/21 03:01:33;;;;;;;26.80;18.37;;;10.30;99.90;;;;;;4958176;28;20027;-82
2023/03/21 03:03:59;;;;;;;27.38;17.08;;;10.30;99.90;;;;;;4974599;28;20038;-82
2023/03/21 03:06:35;;;;;;;26.90;18.17;;;10.30;99.90;;;;;;4974501;28;20101;-83
2023/03/21 03:09:27;;;;;;;30.50;20.30;;;10.30;99.90;;;;;;4975528;28;20039;-81
2023/03/21 03:12:20;;;;;;;27.40;19.07;;;10.30;99.90;;;;;;4952776;28;20444;-81
2023/03/21 03:14:54;;;;;;;29.07;19.53;;;10.40;99.90;;;;;;4958285;28;20118;-82
2023/03/21 03:17:38;;;;;;;26.17;17.67;;;10.30;99.90;;;;;;4958188;28;20061;-81
2023/03/21 03:20:16;;;;;;;28.30;19.13;;;10.30;99.90;;;;;;4975578;28;20058;-81
2023/03/21 03:23:02;;;;;;;32.87;20.47;;;10.30;99.90;;;;;;4990253;28;20058;-81
2023/03/21 03:25:42;;;;;;;28.97;18.83;;;10.30;99.90;;;;;;4967764;28;20038;-82
2023/03/21 03:28:08;;;;;;;29.07;18.50;;;10.30;99.90;;;;;;4975411;28;20060;-83
2023/03/21 03:30:37;;;;;;;27.60;18.90;;;10.30;99.90;;;;;;4973906;28;20114;-81
2023/03/21 03:33:05;;;;;;;29.63;19.53;;;10.30;99.90;;;;;;4975144;28;20033;-82
2023/03/21 03:35:31;;;;;;;24.70;17.50;;;10.30;99.90;;;;;;4975539;28;20023;-82
2023/03/21 03:38:01;;;;;;;32.13;19.17;;;10.30;99.90;;;;;;4975520;28;20039;-81
2023/03/21 03:40:39;;;;;;;28.20;20.40;;;10.30;99.90;;;;;;4975186;28;20123;-82
2023/03/21 03:43:14;;;;;;;33.07;19.87;;;10.30;99.90;;;;;;4957539;28;20054;-81
2023/03/21 03:45:46;;;;;;;31.87;19.73;;;10.30;99.90;;;;;;4958191;28;20077;-82
2023/03/21 03:48:29;;;;;;;30.37;17.23;;;10.30;99.90;;;;;;4957648;28;20043;-82
2023/03/21 03:51:09;;;;;;;25.60;15.90;;;10.30;99.90;;;;;;4957964;28;20382;-81
2023/03/21 03:53:43;;;;;;;26.33;16.60;;;10.30;99.90;;;;;;4974906;28;20059;-81
2023/03/21 03:56:11;;;;;;;25.23;15.70;;;10.20;99.90;;;;;;4974676;28;20427;-81
2023/03/21 03:58:38;;;;;;;29.07;15.83;;;10.20;99.90;;;;;;4974718;28;20031;-82
2023/03/21 04:01:04;;;;;;;26.20;14.80;;;10.20;99.90;;;;;;4973205;28;20030;-82
2023/03/21 04:03:31;;;;;;;31.73;16.10;;;10.20;99.90;;;;;;4972871;28;20050;-82
2023/03/21 04:05:56;;;;;;;25.50;14.20;;;10.20;99.90;;;;;;4989619;28;20042;-82
2023/03/21 04:08:22;;;;;;;24.20;14.10;;;10.20;99.90;;;;;;4956968;28;20476;-81
2023/03/21 04:10:48;;;;;;;21.43;13.40;;;10.20;99.90;;;;;;4956767;28;20034;-82
2023/03/21 04:13:13;;;;;;;25.90;14.10;;;10.30;99.90;;;;;;4957462;28;20027;-83
2023/03/21 04:15:39;;;;;;;23.33;13.17;;;10.30;99.90;;;;;;4956924;28;20554;-82
2023/03/21 04:18:05;;;;;;;23.97;13.40;;;10.30;99.90;;;;;;4973544;28;20069;-83
2023/03/21 04:20:30;;;;;;;21.17;11.47;;;10.30;99.90;;;;;;4957425;28;20052;-82
2023/03/21 04:22:56;;;;;;;24.17;12.07;;;10.30;99.90;;;;;;4974268;28;20027;-83
2023/03/21 04:25:22;;;;;;;31.80;13.27;;;10.30;99.90;;;;;;4973591;28;20365;-83
2023/03/21 04:27:47;;;;;;;20.10;12.13;;;10.30;99.90;;;;;;4973240;28;20026;-82
2023/03/21 04:30:15;;;;;;;23.50;11.67;;;10.30;99.90;;;;;;4973021;28;20046;-83
2023/03/21 04:32:41;;;;;;;19.33;10.90;;;10.30;99.90;;;;;;4956936;28;20031;-83
2023/03/21 04:35:08;;;;;;;22.37;11.37;;;10.30;99.90;;;;;;4957024;28;20062;-83
2023/03/21 04:37:34;;;;;;;18.80;10.57;;;10.40;99.90;;;;;;4956744;28;20122;-83
2023/03/21 04:40:05;;;;;;;20.40;10.50;;;10.30;99.90;;;;;;4973372;28;20055;-83
2023/03/21 04:42:31;;;;;;;21.33;10.97;;;10.40;99.90;;;;;;4989455;28;20469;-83
2023/03/21 04:44:57;;;;;;;22.53;10.67;;;10.30;99.90;;;;;;4956932;28;20066;-83
2023/03/21 04:47:22;;;;;;;19.67;10.37;;;10.30;99.90;;;;;;4956551;28;20039;-81
2023/03/21 04:49:48;;;;;;;19.87;10.97;;;10.30;99.90;;;;;;4956766;28;20070;-81
2023/03/21 04:52:14;;;;;;;19.63;10.30;;;10.40;99.90;;;;;;4956849;28;20042;-82
2023/03/21 04:54:40;;;;;;;17.30;9.57;;;10.40;99.90;;;;;;4974223;28;20421;-83
2023/03/21 04:57:06;;;;;;;18.13;10.17;;;10.40;99.90;;;;;;4956826;28;20038;-84
2023/03/21 04:59:33;;;;;;;20.73;9.57;;;10.40;99.90;;;;;;4956747;28;20031;-85
2023/03/21 05:01:59;;;;;;;24.53;11.00;;;10.40;99.90;;;;;;4974260;28;20506;-83
2023/03/21 05:04:26;;;;;;;26.83;11.30;;;10.40;99.90;;;;;;4974240;28;20023;-84
2023/03/21 05:06:52;;;;;;;21.50;11.17;;;10.40;99.90;;;;;;4974072;28;20031;-84
2023/03/21 05:09:18;;;;;;;21.80;10.83;;;10.40;99.90;;;;;;4974060;28;20047;-82
2023/03/21 05:11:44;;;;;;;16.33;9.77;;;10.40;99.90;;;;;;4974094;28;20039;-82
2023/03/21 05:14:14;;;;;;;21.70;9.97;;;10.40;99.90;;;;;;4957990;28;20027;-83
2023/03/21 05:16:51;;;;;;;22.57;10.50;;;10.40;99.90;;;;;;4978069;28;20030;-83
2023/03/21 05:19:22;;;;;;;23.33;10.83;;;10.40;99.90;;;;;;4960319;28;20108;-82
2023/03/21 05:21:48;;;;;;;21.67;9.70;;;10.40;99.90;;;;;;4977812;28;20026;-83
2023/03/21 05:24:18;;;;;;;22.73;10.40;;;10.40;99.90;;;;;;4960300;28;20122;-82
2023/03/21 05:26:54;;;;;;;17.83;10.30;;;10.40;99.90;;;;;;4977685;28;20023;-82
2023/03/21 05:29:21;;;;;;;22.07;9.93;;;10.30;99.90;;;;;;4959935;28;20038;-82
2023/03/21 05:31:46;;;;;;;18.33;10.30;;;10.30;99.90;;;;;;4959740;28;20031;-83
2023/03/21 05:34:13;;;;;;;19.33;9.63;;;10.30;99.90;;;;;;4976437;28;20086;-81
2023/03/21 05:36:38;;;;;;;20.00;9.67;;;10.30;99.90;;;;;;4978328;28;20022;-82
2023/03/21 05:39:04;;;;;;;20.60;9.63;;;10.20;99.90;;;;;;4969749;28;20033;-83
2023/03/21 05:41:30;;;;;;;18.57;9.63;;;10.30;99.90;;;;;;4986840;28;20093;-82
2023/03/21 05:43:56;;;;;;;22.77;10.70;;;10.30;99.90;;;;;;4978157;28;20030;-83
2023/03/21 05:46:22;;;;;;;21.50;10.67;;;10.20;99.90;;;;;;4968334;28;20041;-83
2023/03/21 05:48:47;;;;;;;16.37;9.33;;;10.20;99.90;;;;;;4974697;28;20141;-83
2023/03/21 05:51:13;;;;;;;22.13;10.00;;;10.20;99.90;;;;;;4974909;28;20038;-83
2023/03/21 05:53:39;;;;;;;18.57;9.63;;;10.20;99.90;;;;;;4977109;28;20391;-83
2023/03/21 05:56:05;;;;;;;19.60;10.07;;;10.30;99.90;;;;;;4976203;28;20031;-84
2023/03/21 05:58:30;;;;;;;19.33;10.10;;;10.20;99.90;;;;;;4959649;28;20117;-83
2023/03/21 06:00:56;;;;;;;24.37;10.57;;;10.20;99.90;;;;;;4959592;28;20163;-79
2023/03/21 06:03:22;;;;;;;18.97;10.13;;;10.30;99.90;;;;;;4975894;28;20537;-77
2023/03/21 06:05:47;;;;;;;21.97;9.90;;;10.30;99.90;;;;;;4975697;28;20030;-79
2023/03/21 06:08:13;;;;;;;21.07;11.33;;;10.30;99.90;;;;;;4964823;28;20038;-79
2023/03/21 06:10:39;;;;;;;20.03;9.10;;;10.30;99.90;;;;;;4979045;28;20463;-79
2023/03/21 06:13:05;;;;;;;22.90;9.83;;;10.30;99.90;;;;;;4978910;28;20403;-79
2023/03/21 06:15:30;;;;;;;21.87;9.17;;;10.40;99.90;;;;;;4996101;28;20041;-79
2023/03/21 06:17:56;;;;;;;18.37;8.83;;;10.40;99.90;;;;;;4968499;28;20113;-79
2023/03/21 06:20:22;;;;;;;22.60;9.03;;;10.40;99.90;;;;;;4961000;28;20105;-79
2023/03/21 06:22:47;;;;;;;17.33;8.43;;;10.40;99.90;;;;;;4978002;28;20131;-78
2023/03/21 06:25:13;;;;;;;21.60;10.37;;;10.40;99.90;;;;;;4946102;28;20057;-77
2023/03/21 06:27:39;;;;;;;17.07;9.53;;;10.40;99.90;;;;;;4978921;28;20030;-78
2023/03/21 06:30:06;;;;;;;21.03;9.13;;;10.40;99.90;;;;;;4978250;28;20193;-77
2023/03/21 06:32:31;;;;;;;20.23;9.43;;;10.40;99.90;;;;;;4994384;28;20030;-79
2023/03/21 06:34:57;;;;;;;17.70;9.37;;;10.40;99.90;;;;;;4977756;28;20044;-79
2023/03/21 06:37:23;;;;;;;22.77;10.40;;;10.50;99.90;;;;;;4978567;28;20119;-79
2023/03/21 06:39:48;;;;;;;20.93;9.40;;;10.50;99.90;;;;;;4981449;28;20034;-83
2023/03/21 06:42:14;;;;;;;23.90;9.47;;;10.50;99.90;;;;;;4994761;28;20035;-85
2023/03/21 06:44:40;;;;;;;20.07;9.60;;;10.50;99.90;;;;;;4994454;28;20490;-85
2023/03/21 06:47:06;;;;;;;16.03;8.80;;;10.50;99.90;;;;;;4978297;28;20432;-84
2023/03/21 06:49:32;;;;;;;22.07;9.37;;;10.50;99.90;;;;;;4958374;28;20396;-85
2023/03/21 06:51:58;;;;;;;23.00;9.20;;;10.50;99.90;;;;;;4974494;28;20023;-85
2023/03/21 06:54:23;;;;;;;21.57;9.27;;;10.50;99.90;;;;;;4942259;28;20031;-83
2023/03/21 06:56:49;;;;;;;14.77;7.47;;;10.50;99.90;;;;;;4958196;28;20056;-85
2023/03/21 06:59:15;;;;;;;18.80;9.13;;;10.60;99.90;;;;;;4942653;28;20027;-84
2023/03/21 07:01:41;;;;;;;14.63;8.47;;;10.60;99.90;;;;;;4975381;28;20037;-84
2023/03/21 07:04:07;;;;;;;18.80;9.03;;;10.60;99.90;;;;;;4959839;28;20037;-85
2023/03/21 07:06:33;;;;;;;15.17;8.83;;;10.60;99.90;;;;;;4975351;28;20125;-84
2023/03/21 07:09:01;;;;;;;17.03;8.67;;;10.60;99.90;;;;;;4976532;28;20062;-84
2023/03/21 07:11:26;;;;;;;16.23;8.10;;;10.70;99.90;;;;;;4975676;28;20160;-85
2023/03/21 07:13:52;;;;;;;21.00;7.95;;;10.70;99.90;;;;;;4975211;28;20027;-85
2023/03/21 07:16:20;;;;;;;16.55;8.18;;;10.70;99.90;;;;;;4943292;28;20035;-85
2023/03/21 07:18:49;;;;;;;17.75;8.25;;;10.80;99.90;;;;;;4960440;28;20045;-84
2023/03/21 07:21:16;;;;;;;19.77;7.17;;;10.80;99.90;;;;;;4956234;29;20075;-83
2023/03/21 07:23:41;;;;;;;18.25;8.20;;;10.80;99.90;;;;;;4938500;29;20498;-85
2023/03/21 07:26:07;;;;;;;16.58;7.70;;;10.90;99.90;;;;;;4937924;29;20047;-84
2023/03/21 07:28:33;;;;;;;18.70;8.10;;;10.90;99.90;;;;;;4954918;29;20043;-85
2023/03/21 07:31:03;;;;;;;13.50;7.72;;;10.90;99.90;;;;;;4938370;29;20023;-84
2023/03/21 07:33:30;;;;;;;19.00;7.65;;;10.90;99.90;;;;;;4938277;29;20032;-86
2023/03/21 07:35:59;;;;;;;15.02;6.78;;;11.00;99.90;;;;;;4939448;29;20027;-86
2023/03/21 07:38:26;;;;;;;15.35;8.07;;;11.00;99.90;;;;;;4938763;29;20179;-85
2023/03/21 07:40:52;;;;;;;15.80;7.85;;;11.00;99.90;;;;;;4938465;29;20086;-86
2023/03/21 07:43:18;;;;;;;18.60;7.60;;;11.00;99.90;;;;;;4940076;29;20041;-86
2023/03/21 07:45:45;;;;;;;19.17;8.10;;;11.00;99.90;;;;;;4955174;28;20055;-86
2023/03/21 07:48:13;;;;;;;21.42;7.65;;;11.00;99.90;;;;;;4945078;28;20460;-85
2023/03/21 07:50:39;;;;;;;21.40;8.63;;;11.00;99.90;;;;;;4975574;28;20039;-85
2023/03/21 07:53:06;;;;;;;20.83;8.32;;;11.00;99.90;;;;;;4957868;28;20042;-85
2023/03/21 07:55:33;;;;;;;17.77;7.18;;;11.00;99.90;;;;;;4957291;28;20033;-85
2023/03/21 07:58:02;;;;;;;17.17;7.28;;;11.00;99.90;;;;;;4957415;28;20035;-86
2023/03/21 08:00:28;;;;;;;19.38;7.85;;;10.90;99.90;;;;;;4957734;28;20027;-84
2023/03/21 08:02:56;;;;;;;20.95;9.45;;;10.90;99.90;;;;;;4973640;28;20478;-86
2023/03/21 08:05:27;;;;;;;17.38;7.20;;;10.90;99.90;;;;;;4957344;28;20023;-84
2023/03/21 08:07:53;;;;;;;24.02;8.38;;;10.80;99.90;;;;;;4957491;28;20050;-84
2023/03/21 08:10:19;;;;;;;13.63;7.10;;;10.90;99.90;;;;;;4974878;28;20043;-85
2023/03/21 08:12:45;;;;;;;15.67;7.17;;;10.80;99.90;;;;;;4957102;28;20131;-85
2023/03/21 08:15:12;;;;;;;17.17;6.57;;;10.90;99.90;;;;;;4957309;28;20463;-87
2023/03/21 08:17:38;;;;;;;16.80;7.60;;;10.80;99.90;;;;;;4974601;28;20026;-84
2023/03/21 08:20:07;;;;;;;13.77;7.10;;;10.90;99.90;;;;;;4973790;28;20031;-83
2023/03/21 08:22:34;;;;;;;17.63;6.67;;;10.80;99.90;;;;;;4973330;28;20035;-85
2023/03/21 08:24:59;;;;;;;16.43;6.80;;;10.90;99.90;;;;;;4957185;28;20395;-85
2023/03/21 08:27:25;;;;;;;17.90;7.70;;;10.90;99.90;;;;;;4941185;28;20027;-85
2023/03/21 08:29:51;;;;;;;20.80;7.88;;;10.90;99.90;;;;;;4973957;28;20043;-85
2023/03/21 08:32:18;;;;;;;15.48;7.53;;;10.90;99.90;;;;;;4973491;28;20365;-85
2023/03/21 08:34:44;;;;;;;16.02;6.57;;;10.90;99.90;;;;;;4957670;28;20027;-84
2023/03/21 08:37:10;;;;;;;17.10;6.97;;;10.90;99.90;;;;;;4957229;28;20077;-85
2023/03/21 08:39:35;;;;;;;19.50;8.20;;;11.00;99.90;;;;;;4957571;28;20479;-83
2023/03/21 08:42:01;;;;;;;18.25;7.25;;;11.00;99.90;;;;;;4975016;28;20031;-84
2023/03/21 08:44:27;;;;;;;14.68;6.60;;;11.00;99.90;;;;;;4958018;28;20117;-85
2023/03/21 08:46:52;;;;;;;13.52;6.25;;;11.10;99.90;;;;;;4958286;28;20031;-84
2023/03/21 08:49:18;;;;;;;15.45;7.13;;;11.20;99.90;;;;;;4943315;28;20051;-84
2023/03/21 08:51:44;;;;;;;17.25;7.32;;;11.20;99.90;;;;;;4961999;28;20061;-84
2023/03/21 08:54:20;;;;;;;11.98;6.53;;;11.20;99.90;;;;;;4962815;28;20584;-83
2023/03/21 08:56:46;;;;;;;18.83;6.70;;;11.30;99.90;;;;;;4980084;28;20035;-85
2023/03/21 08:59:12;;;;;;;14.55;6.55;;;11.30;99.90;;;;;;4981729;28;20118;-84
2023/03/21 09:01:38;;;;;;;16.52;6.85;;;11.30;99.90;;;;;;4962105;28;20034;-85
2023/03/21 09:04:06;;;;;;;18.70;6.45;;;11.40;99.90;;;;;;4960776;28;20031;-85
2023/03/21 09:06:32;;;;;;;15.07;6.60;;;11.40;99.90;;;;;;4960401;28;20030;-84
2023/03/21 09:08:58;;;;;;;16.42;6.15;;;11.40;99.90;;;;;;4960217;28;20050;-84
2023/03/21 09:11:24;;;;;;;13.40;6.10;;;11.40;99.90;;;;;;4961134;28;20034;-86
2023/03/21 09:13:50;;;;;;;13.38;5.88;;;11.40;99.90;;;;;;4962716;28;20114;-86
2023/03/21 09:16:16;;;;;;;14.93;6.28;;;11.50;99.90;;;;;;4960825;28;20027;-85
2023/03/21 09:18:46;;;;;;;15.27;6.45;;;11.50;99.90;;;;;;4960373;28;20125;-84
2023/03/21 09:21:13;;;;;;;20.17;7.28;;;11.60;99.90;;;;;;4976865;28;20023;-85
2023/03/21 09:23:43;;;;;;;17.42;6.82;;;11.60;99.90;;;;;;4960810;28;20372;-85
2023/03/21 09:26:10;;;;;;;15.32;6.90;;;11.60;99.90;;;;;;4960344;28;20070;-84
2023/03/21 09:28:39;;;;;;;14.43;6.55;;;11.70;99.90;;;;;;4978153;28;20038;-85
2023/03/21 09:31:07;;;;;;;21.38;6.75;;;11.70;99.90;;;;;;4976399;28;20026;-84
2023/03/21 09:33:34;;;;;;;16.50;6.95;;;11.70;99.90;;;;;;4959606;28;20093;-84
2023/03/21 09:35:59;;;;;;;12.88;6.53;;;11.70;99.90;;;;;;4960541;28;20034;-83
2023/03/21 09:38:29;;;;;;;15.77;6.13;;;11.80;99.90;;;;;;4960436;28;20030;-85
2023/03/21 09:41:22;;;;;;;13.23;6.80;;;11.80;99.90;;;;;;4960260;28;20061;-85
2023/03/21 09:44:23;;;;;;;15.70;5.97;;;11.80;99.90;;;;;;4959700;28;20494;-84
2023/03/21 09:47:19;;;;;;;13.80;6.07;;;11.80;99.90;;;;;;4934830;28;20050;-83
2023/03/21 09:49:58;;;;;;;15.55;6.55;;;11.80;99.90;;;;;;4976930;28;20070;-84
2023/03/21 09:52:31;;;;;;;14.07;6.32;;;11.80;99.90;;;;;;4959868;28;20037;-83
2023/03/21 09:54:57;;;;;;;13.43;6.25;;;11.80;99.90;;;;;;4959803;28;20118;-84
2023/03/21 09:57:41;;;;;;;12.60;6.10;;;11.80;99.90;;;;;;4943614;28;20035;-84
2023/03/21 10:00:19;;;;;;;15.35;6.47;;;11.80;99.90;;;;;;4959159;28;20046;-83
2023/03/21 10:02:50;;;;;;;13.68;5.75;;;11.90;99.90;;;;;;4959212;28;20023;-84
2023/03/21 10:05:29;;;;;;;13.02;5.25;;;11.90;99.90;;;;;;4975463;28;20482;-84
2023/03/21 10:08:03;;;;;;;19.52;6.15;;;12.00;99.90;;;;;;4975566;28;20046;-84
2023/03/21 10:10:35;;;;;;;11.18;5.25;;;12.00;99.90;;;;;;4977073;28;20531;-84
2023/03/21 10:13:04;;;;;;;12.27;5.60;;;12.10;99.90;;;;;;4958952;28;20102;-84
2023/03/21 10:15:29;;;;;;;10.25;4.25;;;12.20;99.90;;;;;;4975528;28;20055;-83
2023/03/21 10:18:05;;;;;;;14.25;4.63;;;12.30;99.90;;;;;;4975308;28;20035;-85
2023/03/21 10:20:33;;;;;;;9.68;4.38;;;12.40;99.90;;;;;;4976028;28;20027;-83
2023/03/21 10:23:03;;;;;;;9.73;4.05;;;12.50;99.90;;;;;;4976034;28;20530;-83
2023/03/21 10:25:36;;;;;;;9.98;4.43;;;12.70;99.90;;;;;;4958768;28;20527;-83
2023/03/21 10:28:04;;;;;;;15.03;4.27;;;12.70;99.90;;;;;;4976602;28;20053;-82
2023/03/21 10:30:43;;;;;;;10.20;4.18;;;12.70;99.90;;;;;;4959018;28;20034;-83
2023/03/21 10:33:13;;;;;;;11.13;4.70;;;12.70;99.90;;;;;;4975876;28;20487;-85
2023/03/21 10:35:43;;;;;;;10.98;4.43;;;12.80;99.90;;;;;;4975601;28;20031;-84
2023/03/21 10:38:21;;;;;;;14.30;4.15;;;12.80;99.90;;;;;;4958956;28;20058;-84
2023/03/21 10:40:47;;;;;;;11.95;5.15;;;12.80;99.90;;;;;;4959637;28;20023;-85
2023/03/21 10:43:28;;;;;;;11.13;4.55;;;12.80;99.90;;;;;;4958458;28;20089;-84
2023/03/21 10:45:55;;;;;;;14.18;4.57;;;12.90;99.90;;;;;;4975896;28;20185;-83
2023/03/21 10:48:22;;;;;;;12.73;5.07;;;12.90;99.90;;;;;;4974018;28;20066;-83
2023/03/21 10:50:51;;;;;;;13.30;5.10;;;12.90;99.90;;;;;;4958901;28;20550;-84
2023/03/21 10:53:21;;;;;;;12.80;4.93;;;13.00;99.90;;;;;;4976209;28;20022;-84
2023/03/21 10:55:52;;;;;;;11.75;5.05;;;13.00;99.90;;;;;;4957980;28;20037;-84
2023/03/21 10:58:26;;;;;;;12.45;4.95;;;13.00;99.90;;;;;;4975513;28;20023;-84
2023/03/21 11:00:57;;;;;;;9.80;3.85;;;13.20;99.90;;;;;;4975540;28;20026;-83
2023/03/21 11:03:31;;;;;;;9.85;4.22;;;13.30;99.80;;;;;;4975648;28;20499;-84
2023/03/21 11:06:26;;;;;;;11.13;4.18;;;13.40;99.60;;;;;;4975362;28;20061;-84
2023/03/21 11:09:18;;;;;;;10.07;4.20;;;13.60;99.50;;;;;;4974325;28;20483;-82
2023/03/21 11:12:00;;;;;;;11.65;4.45;;;13.70;98.50;;;;;;4966869;28;20034;-83
2023/03/21 11:14:36;;;;;;;10.73;3.38;;;13.70;98.20;;;;;;4976168;28;20045;-84
2023/03/21 11:17:18;;;;;;;12.98;4.28;;;13.80;98.00;;;;;;4974280;28;20033;-83
2023/03/21 11:19:58;;;;;;;14.68;4.32;;;13.80;97.30;;;;;;4957889;28;20027;-84
2023/03/21 11:22:30;;;;;;;9.90;3.92;;;13.70;97.20;;;;;;4975245;28;20022;-84
2023/03/21 11:25:01;;;;;;;9.10;4.35;;;13.70;97.20;;;;;;4958118;28;20089;-83
2023/03/21 11:27:30;;;;;;;10.05;3.70;;;13.80;97.00;;;;;;4973934;28;20023;-83
2023/03/21 11:29:59;;;;;;;10.23;3.85;;;13.80;96.70;;;;;;4975017;28;20066;-84
2023/03/21 11:32:32;;;;;;;10.38;4.40;;;13.80;96.40;;;;;;4957559;28;20037;-84
2023/03/21 11:35:05;;;;;;;11.15;4.22;;;13.80;96.40;;;;;;4975741;28;20026;-84
2023/03/21 11:37:38;;;;;;;11.48;4.18;;;13.90;96.20;;;;;;4958068;28;20026;-84
2023/03/21 11:40:32;;;;;;;10.75;4.18;;;13.90;95.90;;;;;;4957913;28;20019;-84
2023/03/21 11:43:18;;;;;;;9.73;4.15;;;13.90;96.10;;;;;;4973711;28;20027;-84
2023/03/21 11:46:21;;;;;;;13.48;3.58;;;14.00;96.10;;;;;;4943997;28;20479;-84
2023/03/21 11:48:48;;;;;;;10.18;3.50;;;14.10;96.20;;;;;;4934380;28;20479;-84
2023/03/21 11:51:52;;;;;;;13.35;4.03;;;14.10;95.60;;;;;;4957871;28;20026;-84
2023/03/21 11:54:37;;;;;;;9.10;3.50;;;14.20;95.40;;;;;;4975024;28;20035;-84
2023/03/21 11:57:21;;;;;;;11.50;4.43;;;14.30;95.10;;;;;;4973869;28;20163;-84
2023/03/21 12:00:26;;;;;;;8.57;3.75;;;14.30;94.40;;;;;;4974153;28;20033;-83
2023/03/21 12:03:34;;;;;;;10.57;3.70;;;14.30;93.70;;;;;;4957784;28;20031;-83
2023/03/21 12:06:04;;;;;;;9.13;3.80;;;14.30;93.80;;;;;;4943253;28;20046;-83
2023/03/21 12:08:44;;;;;;;14.00;4.18;;;14.20;93.60;;;;;;4974537;28;20395;-83
2023/03/21 12:11:39;;;;;;;12.88;4.15;;;14.30;93.80;;;;;;4973370;28;20122;-84
2023/03/21 12:14:20;;;;;;;11.07;3.38;;;14.30;93.80;;;;;;4973496;28;20034;-84
2023/03/21 12:17:14;;;;;;;10.75;3.38;;;14.40;93.40;;;;;;4972965;28;20022;-84
2023/03/21 12:19:59;;;;;;;12.07;3.95;;;14.40;93.00;;;;;;4973329;28;20066;-84
2023/03/21 12:22:34;;;;;;;8.10;3.28;;;14.50;92.80;;;;;;4957626;28;20114;-85
2023/03/21 12:25:38;;;;;;;11.27;3.20;;;14.50;92.70;;;;;;4973994;28;20065;-84
2023/03/21 12:28:34;;;;;;;6.82;3.35;;;14.50;92.10;;;;;;4970440;28;20039;-84
2023/03/21 12:31:16;;;;;;;8.63;3.50;;;14.40;91.80;;;;;;4974346;28;20035;-83
2023/03/21 12:34:00;;;;;;;17.30;4.85;;;14.40;91.80;;;;;;4974513;28;20054;-83
2023/03/21 12:36:47;;;;;;;9.27;3.40;;;14.30;91.60;;;;;;4974396;28;20101;-82
2023/03/21 12:39:27;;;;;;;9.95;3.67;;;14.30;91.40;;;;;;4973677;28;20039;-83
2023/03/21 12:42:23;;;;;;;11.80;3.40;;;14.20;91.40;;;;;;4957440;28;20033;-83
2023/03/21 12:45:04;;;;;;;9.30;3.30;;;14.10;91.30;;;;;;4973767;28;20034;-82
2023/03/21 12:47:33;;;;;;;13.73;3.63;;;14.10;91.50;;;;;;4957853;28;20054;-83
2023/03/21 12:50:18;;;;;;;9.75;3.85;;;14.10;91.50;;;;;;4953354;29;20063;-84
2023/03/21 12:52:48;;;;;;;11.30;3.75;;;14.20;91.50;;;;;;4937717;29;20114;-83